Time;durP1;ratioP1;P1;durP2;ratioP2;P2;SDS_P1;SDS_P2;PMS_P1;PMS_P2;Temp;Humidity;BMP_temperature;BMP_pressure;BME280_temperature;BME280_humidity;BME280_pressure;Samples;Min_cycle;Max_cycle;Signal;HPM_P1;HPM_P2
2022/09/11 00:00:36;;;;;;;21.05;18.88;;;;;;;13.39;100.00;101679.81;5009831;28;20110;-79
2022/09/11 00:03:01;;;;;;;20.80;18.60;;;;;;;13.33;100.00;101673.97;5002866;28;20041;-78
2022/09/11 00:05:26;;;;;;;22.13;19.45;;;;;;;13.36;100.00;101680.06;5012858;28;20076;-79
2022/09/11 00:07:52;;;;;;;21.42;18.88;;;;;;;13.29;100.00;101680.50;5012775;28;20072;-79
2022/09/11 00:10:17;;;;;;;23.67;19.00;;;;;;;13.31;100.00;101673.22;5010663;28;20519;-79
2022/09/11 00:12:43;;;;;;;21.95;18.83;;;;;;;13.29;100.00;101675.16;5004666;28;20084;-79
2022/09/11 00:15:09;;;;;;;21.00;18.80;;;;;;;13.30;100.00;101681.31;5010325;28;20029;-78
2022/09/11 00:17:35;;;;;;;21.70;18.48;;;;;;;13.25;100.00;101673.66;5013156;28;20109;-79
2022/09/11 00:20:01;;;;;;;22.17;17.75;;;;;;;13.28;100.00;101677.94;5012640;28;20449;-79
2022/09/11 00:22:26;;;;;;;23.05;19.10;;;;;;;13.25;100.00;101673.66;5002479;28;20081;-79
2022/09/11 00:24:52;;;;;;;22.92;18.75;;;;;;;13.24;100.00;101684.44;5010287;28;20026;-79
2022/09/11 00:27:17;;;;;;;22.88;19.15;;;;;;;13.22;100.00;101676.59;5013012;28;20049;-79
2022/09/11 00:29:42;;;;;;;22.33;18.83;;;;;;;13.23;100.00;101690.75;5001474;28;20023;-79
2022/09/11 00:32:09;;;;;;;20.08;18.10;;;;;;;13.20;100.00;101686.50;5003313;28;20777;-79
2022/09/11 00:34:35;;;;;;;21.15;18.13;;;;;;;13.17;100.00;101691.22;5010270;28;20026;-79
2022/09/11 00:37:00;;;;;;;19.15;17.25;;;;;;;13.16;100.00;101693.03;5014282;28;20063;-79
2022/09/11 00:39:25;;;;;;;22.23;18.13;;;;;;;13.16;100.00;101692.19;5003159;28;20457;-79
2022/09/11 00:41:51;;;;;;;23.10;18.73;;;;;;;13.15;100.00;101688.66;5016155;28;20477;-79
2022/09/11 00:44:16;;;;;;;23.15;19.10;;;;;;;13.10;100.00;101694.31;5016028;28;20034;-80
2022/09/11 00:46:45;;;;;;;22.30;18.92;;;;;;;13.08;100.00;101698.94;5014948;28;20037;-79
2022/09/11 00:49:37;;;;;;;20.40;18.20;;;;;;;13.13;100.00;101699.44;5016052;28;20061;-79
2022/09/11 00:52:16;;;;;;;21.70;19.48;;;;;;;13.08;100.00;101703.41;5062891;22;20052;-50
2022/09/11 00:54:45;;;;;;;20.90;18.25;;;;;;;13.07;100.00;101704.38;5054024;28;20463;-50
2022/09/11 00:57:10;;;;;;;21.38;18.70;;;;;;;13.04;100.00;101707.25;5047940;28;20029;-50
2022/09/11 00:59:40;;;;;;;22.60;18.80;;;;;;;13.00;100.00;101703.13;5038621;28;20100;-49
2022/09/11 01:02:08;;;;;;;22.33;19.95;;;;;;;13.00;100.00;101706.63;5053238;28;20052;-51
2022/09/11 01:04:34;;;;;;;22.58;19.77;;;;;;;13.00;100.00;101705.78;5049980;28;20483;-49
2022/09/11 01:07:01;;;;;;;21.42;19.27;;;;;;;13.01;100.00;101710.19;5045791;28;20056;-50
2022/09/11 01:09:28;;;;;;;21.70;19.40;;;;;;;12.98;100.00;101710.41;5050211;28;20029;-48
2022/09/11 01:12:31;;;;;;;21.10;18.73;;;;;;;12.97;100.00;101706.84;5042830;28;20056;-49
2022/09/11 01:15:05;;;;;;;22.50;20.10;;;;;;;12.93;100.00;101718.72;5041043;28;20024;-49
2022/09/11 01:17:53;;;;;;;24.42;20.90;;;;;;;12.94;100.00;101715.94;5021977;28;20112;-50
2022/09/11 01:20:21;;;;;;;24.13;20.95;;;;;;;12.90;100.00;101711.78;5046020;28;20110;-48
2022/09/11 01:23:01;;;;;;;27.50;22.02;;;;;;;12.89;100.00;101706.56;5052553;28;20375;-49
2022/09/11 01:25:48;;;;;;;26.98;23.00;;;;;;;12.88;100.00;101711.06;5049756;28;20498;-48
2022/09/11 01:28:22;;;;;;;30.42;24.02;;;;;;;12.85;100.00;101707.75;5049457;28;20029;-50
2022/09/11 01:30:52;;;;;;;27.85;24.10;;;;;;;12.85;100.00;101707.75;5052542;28;20036;-49
2022/09/11 01:33:31;;;;;;;29.77;24.75;;;;;;;12.83;100.00;101707.88;5048105;28;20064;-48
2022/09/11 01:36:09;;;;;;;26.85;22.75;;;;;;;12.84;100.00;101708.72;5045622;28;20028;-48
2022/09/11 01:38:42;;;;;;;30.77;25.90;;;;;;;12.81;100.00;101709.81;5051887;28;20029;-49
2022/09/11 01:41:14;;;;;;;32.50;25.60;;;;;;;12.78;100.00;101718.84;5051982;28;20125;-49
2022/09/11 01:43:50;;;;;;;29.42;26.05;;;;;;;12.77;100.00;101719.84;5050146;28;20049;-49
2022/09/11 01:46:23;;;;;;;32.97;25.23;;;;;;;12.76;100.00;101723.47;5052040;28;20433;-50
2022/09/11 01:48:59;;;;;;;29.55;23.73;;;;;;;12.75;100.00;101727.06;5046062;28;20094;-48
2022/09/11 01:51:29;;;;;;;30.42;23.77;;;;;;;12.70;100.00;101721.22;5040122;28;20242;-50
2022/09/11 01:53:58;;;;;;;27.88;24.15;;;;;;;12.73;100.00;101714.84;5051043;28;20024;-51
2022/09/11 01:56:28;;;;;;;;;;;;;;;12.82;100.00;101723.97;5041848;28;20471;-50
2022/09/11 01:58:59;;;;;;;27.98;24.25;;;;;;;12.69;100.00;101714.22;5051599;28;19908;-54
2022/09/11 02:01:29;;;;;;;27.58;23.40;;;;;;;12.71;100.00;101725.59;5049119;28;20754;-51
2022/09/11 02:04:06;;;;;;;28.67;23.95;;;;;;;12.68;100.00;101720.47;5051666;28;20557;-50
2022/09/11 02:07:01;;;;;;;31.17;24.38;;;;;;;12.70;100.00;101726.56;5048874;28;20060;-50
2022/09/11 02:09:33;;;;;;;29.13;24.63;;;;;;;12.67;100.00;101724.09;5040882;28;20037;-50
2022/09/11 02:12:01;;;;;;;30.60;24.50;;;;;;;12.65;100.00;101727.84;5051618;28;20073;-49
2022/09/11 02:14:42;;;;;;;27.98;24.98;;;;;;;12.66;100.00;101727.75;5050091;28;20470;-49
2022/09/11 02:17:32;;;;;;;28.95;23.92;;;;;;;12.65;100.00;101731.38;5051844;28;20025;-50
2022/09/11 02:19:59;;;;;;;26.63;23.83;;;;;;;12.58;100.00;101735.44;5051805;28;20139;-49
2022/09/11 02:22:26;;;;;;;26.98;23.95;;;;;;;12.56;100.00;101740.03;5045940;28;20486;-50
2022/09/11 02:24:51;;;;;;;28.85;24.48;;;;;;;12.56;100.00;101737.38;5051420;28;20036;-49
2022/09/11 02:27:26;;;;;;;31.15;24.40;;;;;;;12.56;100.00;101737.38;5051178;28;20036;-50
2022/09/11 02:29:52;;;;;;;31.75;25.52;;;;;;;12.55;100.00;101743.63;5051336;28;21076;-49
2022/09/11 02:32:19;;;;;;;29.02;24.00;;;;;;;12.50;100.00;101738.63;5047249;28;20486;-51
2022/09/11 02:34:47;;;;;;;28.55;24.23;;;;;;;12.50;100.00;101737.78;5030559;28;20118;-49
2022/09/11 02:37:30;;;;;;;25.70;22.90;;;;;;;12.50;100.00;101735.13;5051123;28;20025;-50
2022/09/11 02:40:25;;;;;;;27.30;23.02;;;;;;;12.49;100.00;101742.28;5044774;28;20079;-51
2022/09/11 02:43:31;;;;;;;24.30;21.70;;;;;;;12.46;100.00;101736.31;5044719;28;20090;-50
2022/09/11 02:46:08;;;;;;;26.13;21.52;;;;;;;12.42;100.00;101735.66;5046967;28;20029;-47
2022/09/11 02:48:59;;;;;;;26.10;22.10;;;;;;;12.40;100.00;101745.56;5040068;28;20029;-48
2022/09/11 02:51:37;;;;;;;26.10;21.95;;;;;;;12.38;100.00;101736.84;5049601;28;20060;-48
2022/09/11 02:54:08;;;;;;;26.13;21.42;;;;;;;12.36;100.00;101742.28;5041643;28;20108;-48
2022/09/11 02:56:49;;;;;;;22.00;19.30;;;;;;;12.35;100.00;101734.38;5052675;28;20080;-48
2022/09/11 02:59:23;;;;;;;26.33;20.98;;;;;;;12.32;100.00;101742.59;5040928;28;20426;-48
2022/09/11 03:01:51;;;;;;;23.50;21.08;;;;;;;12.32;100.00;101750.56;5051725;28;20111;-47
2022/09/11 03:04:17;;;;;;;25.52;21.40;;;;;;;12.33;100.00;101744.31;5049697;28;20029;-46
2022/09/11 03:06:44;;;;;;;27.73;23.25;;;;;;;12.32;100.00;101751.44;5052471;28;20381;-48
2022/09/11 03:09:09;;;;;;;24.90;22.23;;;;;;;12.32;100.00;101750.56;5052612;28;20017;-49
2022/09/11 03:11:34;;;;;;;30.48;23.05;;;;;;;12.28;100.00;101749.09;5052544;28;20497;-48
2022/09/11 03:14:00;;;;;;;29.15;23.35;;;;;;;12.31;100.00;101757.72;5043721;28;20537;-51
2022/09/11 03:16:25;;;;;;;30.13;23.65;;;;;;;12.31;100.00;101754.22;5052509;28;20040;-48
2022/09/11 03:18:51;;;;;;;34.70;24.08;;;;;;;12.30;100.00;101756.00;5052509;28;20025;-48
2022/09/11 03:21:16;;;;;;;40.28;28.00;;;;;;;12.32;100.00;101756.78;5042419;28;20034;-47
2022/09/11 03:23:42;;;;;;;37.15;24.60;;;;;;;12.31;100.00;101755.06;5051033;28;20435;-48
2022/09/11 03:26:07;;;;;;;32.92;25.13;;;;;;;12.32;100.00;101751.44;5052500;28;20060;-50
2022/09/11 03:28:33;;;;;;;50.33;25.35;;;;;;;12.30;100.00;101752.50;5049704;28;20017;-48
2022/09/11 03:30:58;;;;;;;41.90;24.70;;;;;;;12.27;100.00;101753.56;5044851;28;20041;-49
2022/09/11 03:33:24;;;;;;;55.50;24.48;;;;;;;12.26;100.00;101753.66;5046631;28;20021;-48
2022/09/11 03:35:49;;;;;;;33.53;22.00;;;;;;;12.27;100.00;101758.03;5052408;28;20555;-49
2022/09/11 03:38:14;;;;;;;26.43;22.10;;;;;;;12.27;100.00;101750.03;5052180;28;20114;-48
2022/09/11 03:40:43;;;;;;;31.67;21.77;;;;;;;12.27;100.00;101758.88;5052070;28;20284;-49
2022/09/11 03:43:09;;;;;;;43.53;21.17;;;;;;;12.26;100.00;101767.84;5046478;28;20017;-50
2022/09/11 03:45:34;;;;;;;38.45;21.77;;;;;;;12.27;100.00;101772.19;5052372;28;20116;-49
2022/09/11 03:48:00;;;;;;;26.60;20.27;;;;;;;12.27;100.00;101766.88;5051972;28;20072;-48
2022/09/11 03:50:25;;;;;;;25.15;20.90;;;;;;;12.24;100.00;101766.22;5049994;28;20363;-48
2022/09/11 03:52:51;;;;;;;21.15;18.92;;;;;;;12.22;100.00;101769.00;5050119;28;20435;-48
2022/09/11 03:55:16;;;;;;;20.77;18.25;;;;;;;12.20;100.00;101763.78;5051931;28;20091;-48
2022/09/11 03:57:41;;;;;;;22.60;18.38;;;;;;;12.23;100.00;101752.06;5052263;28;20025;-48
2022/09/11 04:00:08;;;;;;;30.73;17.17;;;;;;;12.20;100.00;101763.78;5046466;28;20029;-48
2022/09/11 04:02:34;;;;;;;20.20;16.48;;;;;;;12.21;100.00;101756.66;5049782;28;20036;-47
2022/09/11 04:04:59;;;;;;;20.57;17.53;;;;;;;12.23;100.00;101765.38;5051004;28;20033;-47
2022/09/11 04:07:24;;;;;;;25.00;16.07;;;;;;;12.24;100.00;101763.56;5051806;28;20275;-48
2022/09/11 04:09:49;;;;;;;35.45;17.95;;;;;;;12.24;100.00;101763.56;5052068;28;20656;-48
2022/09/11 04:12:15;;;;;;;18.95;15.27;;;;;;;12.19;100.00;101759.44;5054082;28;20394;-48
2022/09/11 04:14:40;;;;;;;35.08;17.88;;;;;;;12.19;100.00;101761.22;5045644;28;20467;-48
2022/09/11 04:17:07;;;;;;;26.98;16.15;;;;;;;12.18;100.00;101760.38;5053788;28;20025;-46
2022/09/11 04:19:32;;;;;;;21.83;16.33;;;;;;;12.16;100.00;101761.47;5055751;28;20033;-47
2022/09/11 04:21:58;;;;;;;26.00;15.55;;;;;;;12.16;100.00;101767.63;5054361;28;20024;-48
2022/09/11 04:24:23;;;;;;;17.90;16.20;;;;;;;12.16;100.00;101772.94;5055615;28;20478;-48
2022/09/11 04:26:48;;;;;;;17.02;15.25;;;;;;;12.13;100.00;101765.16;5055442;28;20131;-49
2022/09/11 04:29:16;;;;;;;20.55;15.45;;;;;;;12.13;100.00;101765.16;5044412;28;20378;-49
2022/09/11 04:31:42;;;;;;;21.27;15.00;;;;;;;12.13;100.00;101759.84;5053317;28;20036;-48
2022/09/11 04:34:08;;;;;;;16.23;14.60;;;;;;;12.16;100.00;101759.63;5045238;28;20018;-46
2022/09/11 04:36:34;;;;;;;30.00;17.35;;;;;;;12.15;100.00;101765.91;5052954;28;20055;-48
2022/09/11 04:38:59;;;;;;;18.48;16.63;;;;;;;12.14;100.00;101763.34;5047890;28;20057;-48
2022/09/11 04:41:25;;;;;;;24.58;15.90;;;;;;;12.14;100.00;101760.69;5052995;28;20103;-48
2022/09/11 04:43:54;;;;;;;21.10;14.93;;;;;;;12.09;100.00;101766.34;5049431;28;20033;-48
2022/09/11 04:46:19;;;;;;;;;;;;;;;12.21;100.00;101769.97;5053479;28;20040;-48
2022/09/11 04:48:46;;;;;;;36.17;16.83;;;;;;;12.10;100.00;101769.84;5055274;28;19909;-48
2022/09/11 04:51:28;;;;;;;46.80;17.05;;;;;;;12.10;100.00;101777.84;5049902;28;20397;-48
2022/09/11 04:53:56;;;;;;;47.30;17.02;;;;;;;12.09;100.00;101778.78;5055229;28;20053;-48
2022/09/11 04:56:23;;;;;;;94.43;18.45;;;;;;;12.08;100.00;101775.28;5048870;28;20055;-48
2022/09/11 04:58:56;;;;;;;52.22;17.05;;;;;;;12.07;100.00;101776.22;5054704;28;20492;-48
2022/09/11 05:01:22;;;;;;;56.38;18.02;;;;;;;12.06;100.00;101776.34;5050248;28;20387;-48
2022/09/11 05:03:48;;;;;;;33.58;16.10;;;;;;;12.04;100.00;101773.81;5049072;28;20025;-48
2022/09/11 05:06:15;;;;;;;28.40;16.38;;;;;;;12.03;100.00;101772.09;5053502;28;20031;-47
2022/09/11 05:08:41;;;;;;;54.50;17.00;;;;;;;12.00;100.00;101773.13;5054876;28;20031;-48
2022/09/11 05:11:10;;;;;;;27.13;16.40;;;;;;;12.03;100.00;101778.25;5049610;28;20384;-48
2022/09/11 05:13:35;;;;;;;;;;;;;;;12.15;100.00;101781.03;5051201;28;20466;-48
2022/09/11 05:16:03;;;;;;;24.27;15.83;;;;;;;12.06;100.00;101792.31;5054754;28;19915;-48
2022/09/11 05:18:28;;;;;;;22.50;15.55;;;;;;;12.03;100.00;101796.03;5054446;28;20021;-49
2022/09/11 05:21:14;;;;;;;32.78;15.52;;;;;;;12.00;100.00;101799.75;5035364;28;20094;-48
2022/09/11 05:23:40;;;;;;;16.75;13.98;;;;;;;11.96;100.00;101805.41;5053368;28;20116;-49
2022/09/11 05:26:12;;;;;;;23.83;14.65;;;;;;;11.94;100.00;101801.97;5054552;28;20033;-49
2022/09/11 05:28:38;;;;;;;23.55;15.13;;;;;;;11.92;100.00;101815.38;5047729;28;20040;-48
2022/09/11 05:31:14;;;;;;;23.65;15.63;;;;;;;11.94;100.00;101812.63;5054304;28;20059;-48
2022/09/11 05:33:39;;;;;;;24.15;14.40;;;;;;;11.91;100.00;101827.00;5042479;28;20036;-48
2022/09/11 05:36:05;;;;;;;18.55;14.25;;;;;;;11.89;100.00;101828.03;5044205;28;20025;-48
2022/09/11 05:38:30;;;;;;;16.65;14.40;;;;;;;11.89;100.00;101839.53;5053332;28;20070;-49
2022/09/11 05:40:56;;;;;;;15.07;13.32;;;;;;;11.87;100.00;101833.44;5045975;28;20036;-50
2022/09/11 05:43:21;;;;;;;15.93;14.52;;;;;;;11.87;100.00;101836.09;5054596;28;20025;-49
2022/09/11 05:45:54;;;;;;;21.13;14.43;;;;;;;11.87;100.00;101841.44;5054189;28;20021;-48
2022/09/11 05:48:19;;;;;;;15.18;13.68;;;;;;;11.88;100.00;101847.63;5041278;28;20032;-52
2022/09/11 05:50:54;;;;;;;18.85;14.18;;;;;;;11.88;100.00;101851.13;5052328;28;20037;-49
2022/09/11 05:53:20;;;;;;;14.00;12.63;;;;;;;11.89;100.00;101854.66;5053603;28;20116;-49
2022/09/11 05:55:46;;;;;;;16.67;12.18;;;;;;;11.87;100.00;101857.41;5047782;28;20551;-48
2022/09/11 05:58:11;;;;;;;15.00;13.50;;;;;;;11.89;100.00;101855.53;5053780;28;20156;-48
2022/09/11 06:00:37;;;;;;;18.92;12.57;;;;;;;11.89;100.00;101858.19;5046572;28;20117;-49
2022/09/11 06:03:03;;;;;;;14.27;13.07;;;;;;;11.90;100.00;101861.69;5053660;28;20021;-50
2022/09/11 06:05:29;;;;;;;15.32;13.93;;;;;;;11.89;100.00;101860.84;5051872;28;20342;-48
2022/09/11 06:07:54;;;;;;;15.35;13.93;;;;;;;11.94;100.00;101868.53;5053697;28;20116;-51
2022/09/11 06:10:20;;;;;;;26.70;15.30;;;;;;;11.96;100.00;101866.66;5052350;28;20032;-49
2022/09/11 06:12:45;;;;;;;24.50;14.10;;;;;;;12.00;100.00;101874.31;5053157;28;20028;-49
2022/09/11 06:15:10;;;;;;;25.87;15.33;;;;;;;11.98;100.00;101870.91;5053551;28;20029;-51
2022/09/11 06:17:36;;;;;;;27.50;14.23;;;;;;;12.05;100.00;101870.50;5053369;28;20279;-47
2022/09/11 06:20:01;;;;;;;28.00;14.77;;;;;;;12.06;100.00;101875.72;5046145;28;20504;-50
2022/09/11 06:22:28;;;;;;;27.60;15.70;;;;;;;12.10;100.00;101874.56;5036757;28;20045;-48
2022/09/11 06:24:54;;;;;;;15.43;14.00;;;;;;;12.17;100.00;101875.88;5043978;28;20028;-49
2022/09/11 06:27:19;;;;;;;21.75;14.75;;;;;;;12.20;100.00;101880.13;5046563;28;20381;-49
2022/09/11 06:29:44;;;;;;;17.98;14.38;;;;;;;12.26;100.00;101889.50;5052801;28;20029;-48
2022/09/11 06:32:10;;;;;;;18.88;15.45;;;;;;;12.30;100.00;101891.88;5044598;28;20029;-48
2022/09/11 06:34:36;;;;;;;15.90;14.32;;;;;;;12.35;100.00;101892.41;5051978;28;20051;-48
2022/09/11 06:37:02;;;;;;;31.83;15.27;;;;;;;12.37;100.00;101893.19;5050602;28;20052;-48
2022/09/11 06:39:27;;;;;;;19.50;16.08;;;;;;;12.46;100.00;101894.38;5051563;28;20052;-48
2022/09/11 06:41:53;;;;;;;18.00;15.73;;;;;;;12.53;100.00;101892.97;5046387;28;20064;-52
2022/09/11 06:44:18;;;;;;;38.80;15.68;;;;;;;12.57;100.00;101901.63;5038655;28;20025;-52
2022/09/11 06:46:44;;;;;;;36.15;15.68;;;;;;;12.56;100.00;101898.09;5044994;28;20068;-51
2022/09/11 06:49:09;;;;;;;27.77;16.50;;;;;;;12.63;100.00;101900.34;5051877;28;20446;-49
2022/09/11 06:51:35;;;;;;;30.55;15.93;;;;;;;12.67;100.00;101896.50;5039126;28;20045;-50
2022/09/11 06:54:01;;;;;;;17.95;16.13;;;;;;;12.73;100.00;101899.59;5035018;28;20030;-48
2022/09/11 06:56:30;;;;;;;37.97;17.65;;;;;;;12.80;100.00;101899.19;5038649;28;20056;-49
2022/09/11 06:58:56;;;;;;;18.50;16.15;;;;;;;12.86;100.00;101904.09;5035174;28;20028;-51
2022/09/11 07:01:22;;;;;;;19.80;16.75;;;;;;;12.95;100.00;101908.78;5034214;28;20510;-50
2022/09/11 07:03:49;;;;;;;24.48;16.25;;;;;;;12.99;100.00;101909.41;5034415;28;20044;-52
2022/09/11 07:06:17;;;;;;;19.13;17.13;;;;;;;13.05;100.00;101901.84;5035822;28;20042;-50
2022/09/11 07:08:42;;;;;;;24.63;16.20;;;;;;;13.13;100.00;101901.31;5044900;28;20039;-50
2022/09/11 07:11:11;;;;;;;35.83;16.50;;;;;;;13.15;100.00;101904.72;5044366;28;20040;-52
2022/09/11 07:13:37;;;;;;;19.45;17.45;;;;;;;13.25;100.00;101900.44;5047407;28;20022;-49
2022/09/11 07:16:06;;;;;;;34.67;17.35;;;;;;;13.29;100.00;101901.09;5041547;28;20428;-49
2022/09/11 07:18:36;;;;;;;27.23;16.90;;;;;;;13.37;100.00;101898.72;5035048;28;20037;-51
2022/09/11 07:21:06;;;;;;;95.03;16.63;;;;;;;13.39;100.00;101902.16;5038866;28;20039;-50
2022/09/11 07:23:33;;;;;;;62.88;16.83;;;;;;;13.46;100.00;101899.91;5041437;28;20043;-49
2022/09/11 07:26:02;;;;;;;42.47;16.70;;;;;;;13.50;100.00;101896.03;5043377;28;20063;-49
2022/09/11 07:28:27;;;;;;;25.15;16.70;;;;;;;13.58;100.00;101901.69;5046318;28;20029;-47
2022/09/11 07:30:53;;;;;;;24.75;17.30;;;;;;;13.64;100.00;101900.41;5038693;28;20123;-47
2022/09/11 07:33:18;;;;;;;33.87;15.60;;;;;;;13.71;100.00;101898.97;5048405;28;20479;-46
2022/09/11 07:35:43;;;;;;;20.43;16.50;;;;;;;13.83;100.00;101900.75;5048079;28;20306;-47
2022/09/11 07:38:08;;;;;;;23.47;18.03;;;;;;;13.95;100.00;101898.13;5050546;28;20367;-46
2022/09/11 07:40:34;;;;;;;22.00;16.77;;;;;;;14.02;100.00;101899.38;5048832;28;21499;-46
2022/09/11 07:43:00;;;;;;;26.92;17.67;;;;;;;14.08;100.00;101904.25;5047603;28;20279;-46
2022/09/11 07:45:26;;;;;;;32.53;17.40;;;;;;;14.16;100.00;101901.03;5045953;28;20039;-47
2022/09/11 07:47:52;;;;;;;24.13;16.33;;;;;;;14.23;100.00;101903.09;5050464;28;20079;-47
2022/09/11 07:50:17;;;;;;;24.67;17.63;;;;;;;14.31;100.00;101899.03;5042655;28;20434;-46
2022/09/11 07:52:43;;;;;;;19.00;16.63;;;;;;;14.41;100.00;101897.34;5039572;28;20041;-48
2022/09/11 07:55:08;;;;;;;19.60;17.58;;;;;;;14.54;100.00;101903.47;5041923;28;20491;-46
2022/09/11 07:57:33;;;;;;;22.85;18.38;;;;;;;14.65;100.00;101900.00;5050943;28;20445;-47
2022/09/11 07:59:59;;;;;;;26.77;19.43;;;;;;;14.68;100.00;101902.44;5049073;28;20041;-46
2022/09/11 08:02:24;;;;;;;35.42;19.05;;;;;;;14.78;100.00;101905.25;5046583;28;20780;-46
2022/09/11 08:04:50;;;;;;;26.80;20.75;;;;;;;14.91;100.00;101915.84;5050148;28;20110;-45
2022/09/11 08:07:15;;;;;;;23.08;18.85;;;;;;;14.97;100.00;101905.53;5055033;28;20055;-46
2022/09/11 08:09:41;;;;;;;24.85;19.77;;;;;;;15.09;100.00;101910.88;5040704;28;20033;-47
2022/09/11 08:12:06;;;;;;;28.40;19.20;;;;;;;15.18;100.00;101912.81;5048468;28;20045;-46
2022/09/11 08:14:31;;;;;;;25.55;19.55;;;;;;;15.29;100.00;101917.34;5049893;28;20279;-46
2022/09/11 08:16:57;;;;;;;21.67;19.13;;;;;;;15.44;100.00;101910.75;5050857;28;20049;-47
2022/09/11 08:19:22;;;;;;;24.60;19.88;;;;;;;15.53;100.00;101915.34;5050097;28;20036;-46
2022/09/11 08:21:49;;;;;;;24.08;21.35;;;;;;;15.80;100.00;101930.19;5052391;28;20048;-47
2022/09/11 08:24:16;;;;;;;24.83;21.48;;;;;;;16.02;100.00;101925.75;5046104;28;20471;-47
2022/09/11 08:26:41;;;;;;;25.60;22.23;;;;;;;16.01;100.00;101932.09;5051602;28;20053;-49
2022/09/11 08:29:07;;;;;;;25.05;22.60;;;;;;;16.13;100.00;101930.22;5054295;28;20036;-47
2022/09/11 08:31:34;;;;;;;24.42;21.42;;;;;;;16.24;100.00;101941.75;5052668;28;20041;-47
2022/09/11 08:33:59;;;;;;;24.20;21.63;;;;;;;16.33;100.00;101940.13;5052914;28;20382;-46
2022/09/11 08:36:25;;;;;;;26.45;22.00;;;;;;;16.37;100.00;101936.22;5052662;28;20052;-46
2022/09/11 08:38:51;;;;;;;25.75;22.77;;;;;;;16.43;99.83;101943.72;5043790;28;20041;-47
2022/09/11 08:41:30;;;;;;;28.55;24.00;;;;;;;16.50;98.75;101936.03;5041975;28;20048;-47
2022/09/11 08:44:10;;;;;;;25.30;22.55;;;;;;;16.61;99.18;101941.34;5050897;28;20025;-47
2022/09/11 08:46:39;;;;;;;26.48;23.75;;;;;;;16.81;98.02;101945.00;5052080;28;20025;-48
2022/09/11 08:49:26;;;;;;;29.60;24.08;;;;;;;17.05;97.88;101941.22;5052476;28;20036;-49
2022/09/11 08:51:59;;;;;;;27.77;23.67;;;;;;;17.22;97.18;101945.13;5052716;28;20083;-48
2022/09/11 08:54:35;;;;;;;26.35;23.58;;;;;;;17.25;95.15;101941.31;5043273;28;20067;-47
2022/09/11 08:57:33;;;;;;;26.27;23.48;;;;;;;17.43;95.77;101946.91;5053725;28;20075;-49
2022/09/11 09:00:06;;;;;;;27.25;24.13;;;;;;;17.72;95.70;101941.63;5053646;28;20386;-49
2022/09/11 09:02:40;;;;;;;26.80;24.15;;;;;;;17.98;93.14;101941.13;5054923;28;20516;-48
2022/09/11 09:05:50;;;;;;;25.17;22.55;;;;;;;18.23;93.51;101939.75;5050521;28;20071;-49
2022/09/11 09:08:54;;;;;;;25.92;23.08;;;;;;;18.58;91.86;101935.63;5046130;28;20564;-48
2022/09/11 09:11:27;;;;;;;26.10;23.50;;;;;;;18.73;89.95;101944.94;5013730;28;20045;-50
2022/09/11 09:14:04;;;;;;;23.42;21.00;;;;;;;18.95;84.76;101951.88;5044814;28;20036;-51
2022/09/11 09:17:07;;;;;;;23.60;21.27;;;;;;;19.15;87.03;101951.81;5054916;28;20033;-50
2022/09/11 09:19:37;;;;;;;24.40;21.17;;;;;;;19.19;81.12;101956.75;5045461;28;20036;-49
2022/09/11 09:22:12;;;;;;;25.33;22.63;;;;;;;19.38;83.73;101958.56;5054400;28;20025;-49
2022/09/11 09:24:49;;;;;;;21.65;19.50;;;;;;;19.72;82.02;101960.66;5054722;28;20029;-49
2022/09/11 09:27:28;;;;;;;22.70;20.30;;;;;;;19.81;79.36;101960.78;5046866;28;20049;-49
2022/09/11 09:29:56;;;;;;;24.35;21.67;;;;;;;19.90;79.89;101955.31;5041865;28;20390;-48
2022/09/11 09:32:28;;;;;;;23.85;21.52;;;;;;;20.05;81.58;101955.66;5052575;28;20116;-49
2022/09/11 09:34:59;;;;;;;24.33;21.92;;;;;;;20.33;81.06;101956.44;5036353;28;20024;-48
2022/09/11 09:37:27;;;;;;;23.80;21.60;;;;;;;20.67;79.85;101960.28;5054398;28;20068;-48
2022/09/11 09:39:53;;;;;;;23.75;21.35;;;;;;;20.93;78.71;101956.75;5045288;28;20036;-49
2022/09/11 09:42:36;;;;;;;23.65;20.85;;;;;;;21.05;79.60;101960.88;5049833;28;20036;-52
2022/09/11 09:45:32;;;;;;;25.60;23.20;;;;;;;20.98;79.79;101960.66;5035218;28;20390;-49
2022/09/11 09:47:57;;;;;;;22.50;20.30;;;;;;;20.96;74.77;101962.66;5043116;28;20067;-48
2022/09/11 09:50:32;;;;;;;21.08;18.80;;;;;;;21.10;75.47;101963.09;5054008;28;20021;-47
2022/09/11 09:53:20;;;;;;;22.02;19.75;;;;;;;21.29;77.09;101962.03;5044528;28;20096;-48
2022/09/11 09:55:47;;;;;;;21.88;19.70;;;;;;;21.16;71.66;101960.59;5020659;28;20052;-47
2022/09/11 09:58:13;;;;;;;21.35;19.27;;;;;;;21.04;73.49;101957.31;5053674;28;20036;-48
2022/09/11 10:00:40;;;;;;;21.38;19.13;;;;;;;21.20;73.38;101956.56;5047942;28;20037;-48
2022/09/11 10:03:20;;;;;;;20.10;18.08;;;;;;;21.52;74.70;101956.94;5047509;28;20456;-48
2022/09/11 10:05:47;;;;;;;20.42;18.52;;;;;;;21.47;72.90;101954.72;5042623;28;20025;-49
2022/09/11 10:08:28;;;;;;;20.35;18.25;;;;;;;21.51;73.34;101953.34;5053532;28;20025;-47
2022/09/11 10:10:59;;;;;;;19.30;17.55;;;;;;;21.38;70.39;101956.50;5044777;28;20055;-48
2022/09/11 10:13:27;;;;;;;20.63;18.42;;;;;;;21.42;70.67;101960.56;5049543;28;20086;-47
2022/09/11 10:15:58;;;;;;;19.25;17.35;;;;;;;21.45;69.90;101962.13;5053574;28;20025;-48
2022/09/11 10:18:34;;;;;;;19.27;17.33;;;;;;;21.44;70.95;101976.63;5053406;28;20064;-47
2022/09/11 10:21:12;;;;;;;21.77;17.55;;;;;;;21.46;71.65;101961.09;5041062;28;20029;-48
2022/09/11 10:23:57;;;;;;;20.08;18.08;;;;;;;21.43;72.20;101956.00;5043069;28;20036;-48
2022/09/11 10:26:33;;;;;;;18.65;16.90;;;;;;;21.36;69.98;101952.25;5051991;28;20068;-47
2022/09/11 10:29:11;;;;;;;19.40;17.50;;;;;;;21.31;71.36;101957.31;5053330;28;20115;-51
2022/09/11 10:31:47;;;;;;;19.27;17.45;;;;;;;21.16;70.33;101955.19;5053166;28;20021;-49
2022/09/11 10:34:16;;;;;;;18.45;16.67;;;;;;;21.09;71.09;101958.72;5053495;28;20057;-49
2022/09/11 10:37:12;;;;;;;19.08;17.20;;;;;;;21.15;71.00;101964.31;5047620;28;20024;-50
2022/09/11 10:39:40;;;;;;;18.92;17.13;;;;;;;21.04;69.43;101960.03;5039681;28;20087;-49
2022/09/11 10:42:15;;;;;;;20.33;18.27;;;;;;;21.11;69.77;101954.81;5053155;28;20528;-49
2022/09/11 10:44:43;;;;;;;20.27;18.17;;;;;;;21.26;70.21;101950.50;5053173;28;20070;-49
2022/09/11 10:47:23;;;;;;;19.48;17.48;;;;;;;21.55;70.04;101951.19;5046855;28;20040;-47
2022/09/11 10:49:49;;;;;;;18.88;17.08;;;;;;;21.79;66.76;101947.72;5053118;28;20423;-48
2022/09/11 10:52:18;;;;;;;12.70;11.60;;;;;;;22.02;63.98;101945.25;5049080;28;20450;-48
2022/09/11 10:54:52;;;;;;;14.52;13.20;;;;;;;22.26;64.68;101955.25;5053174;28;20029;-47
2022/09/11 10:57:27;;;;;;;14.35;12.85;;;;;;;22.53;65.97;101945.13;5050924;28;20516;-48
2022/09/11 11:00:01;;;;;;;13.00;11.70;;;;;;;22.80;64.94;101951.19;5042898;28;20486;-48
2022/09/11 11:02:51;;;;;;;13.07;11.68;;;;;;;22.98;65.17;101942.88;5052504;28;20111;-48
2022/09/11 11:05:55;;;;;;;12.05;10.85;;;;;;;23.20;63.71;101949.44;5043675;28;20040;-47
2022/09/11 11:08:42;;;;;;;11.77;10.07;;;;;;;23.47;62.31;101953.59;5052608;28;20443;-48
2022/09/11 11:11:26;;;;;;;15.57;14.00;;;;;;;23.62;61.71;101951.81;5042306;28;20047;-48
2022/09/11 11:14:06;;;;;;;15.15;13.57;;;;;;;23.56;64.76;101952.53;5046582;28;20687;-47
2022/09/11 11:16:54;;;;;;;14.15;12.63;;;;;;;23.39;63.40;101951.75;5052438;28;20116;-48
2022/09/11 11:19:46;;;;;;;14.00;12.60;;;;;;;23.27;64.76;101943.16;5052681;28;20029;-51